Time;durP1;ratioP1;P1;durP2;ratioP2;P2;SDS_P1;SDS_P2;PMS_P1;PMS_P2;Temp;Humidity;BMP_temperature;BMP_pressure;BME280_temperature;BME280_humidity;BME280_pressure;Samples;Min_cycle;Max_cycle;Signal;HPM_P1;HPM_P2
2022/02/21 00:00:50;;;;;;;3.83;1.83;;;;;;;7.21;73.32;94487.06;5019260;28;20214;-80
2022/02/21 00:03:20;;;;;;;3.63;1.00;;;;;;;7.28;72.99;94486.31;5035529;28;20616;-80
2022/02/21 00:05:45;;;;;;;1.80;0.60;;;;;;;7.31;72.96;94467.09;5036855;28;20181;-80
2022/02/21 00:08:10;;;;;;;1.97;0.80;;;;;;;7.34;73.25;94451.31;5036737;28;20186;-80
2022/02/21 00:10:36;;;;;;;3.63;1.10;;;;;;;7.31;72.90;94461.94;5021614;28;20175;-80
2022/02/21 00:13:01;;;;;;;1.67;0.80;;;;;;;7.35;73.98;94440.03;5019227;28;20240;-81
2022/02/21 00:15:27;;;;;;;1.37;0.70;;;;;;;7.26;75.00;94449.50;5036471;28;20663;-80
2022/02/21 00:17:53;;;;;;;0.90;0.73;;;;;;;7.25;75.02;94444.50;5019032;28;20182;-79
2022/02/21 00:20:19;;;;;;;2.10;0.80;;;;;;;7.25;76.06;94431.59;5036466;28;20202;-80
2022/02/21 00:22:45;;;;;;;2.40;0.70;;;;;;;7.12;76.74;94436.34;5036101;28;20621;-80
2022/02/21 00:25:10;;;;;;;0.80;0.70;;;;;;;7.19;76.03;94414.13;5019352;28;20202;-81
2022/02/21 00:27:36;;;;;;;3.07;0.60;;;;;;;7.16;77.46;94419.59;5035819;28;20183;-80
2022/02/21 00:30:03;;;;;;;1.57;0.77;;;;;;;6.95;78.84;94419.97;5019362;28;20214;-81
2022/02/21 00:32:28;;;;;;;1.77;0.60;;;;;;;6.97;79.99;94434.31;5036794;28;20202;-81
2022/02/21 00:34:53;;;;;;;1.13;0.60;;;;;;;6.88;81.25;94417.16;5036843;28;20701;-80
2022/02/21 00:37:19;;;;;;;2.77;1.37;;;;;;;6.93;80.85;94438.19;5019756;28;20277;-80
2022/02/21 00:39:44;;;;;;;3.97;1.07;;;;;;;6.84;81.89;94421.03;5035889;28;20217;-80
2022/02/21 00:42:09;;;;;;;1.70;1.00;;;;;;;6.80;82.24;94399.91;5034420;28;20202;-80
2022/02/21 00:44:35;;;;;;;0.97;0.50;;;;;;;6.73;82.80;94380.81;5018388;28;20590;-81
2022/02/21 00:47:00;;;;;;;3.47;0.70;;;;;;;6.69;83.09;94365.78;5040308;28;20648;-81
2022/02/21 00:49:26;;;;;;;3.53;0.90;;;;;;;6.71;83.29;94350.94;5049269;28;20179;-81
2022/02/21 00:51:51;;;;;;;2.77;0.90;;;;;;;6.56;84.45;94342.19;5035989;28;20206;-81
2022/02/21 00:54:17;;;;;;;2.87;0.73;;;;;;;6.57;83.90;94354.91;5018898;28;20177;-81
2022/02/21 00:56:42;;;;;;;2.60;0.73;;;;;;;6.54;84.61;94342.34;5035129;28;20571;-81
2022/02/21 00:59:07;;;;;;;3.00;0.80;;;;;;;6.60;84.84;94317.69;5018663;28;20178;-80
2022/02/21 01:01:33;;;;;;;1.50;0.60;;;;;;;6.50;85.26;94317.78;5018415;28;20205;-80
2022/02/21 01:03:58;;;;;;;2.17;0.70;;;;;;;6.48;86.00;94299.09;5018446;28;20211;-80
2022/02/21 01:06:23;;;;;;;1.37;0.50;;;;;;;6.43;85.87;94309.03;5034563;28;20714;-82
2022/02/21 01:08:48;;;;;;;3.23;1.33;;;;;;;6.39;86.06;94298.25;5017791;28;20183;-80
2022/02/21 01:11:14;;;;;;;1.10;0.53;;;;;;;6.35;87.04;94284.00;5033162;28;20194;-79
2022/02/21 01:13:40;;;;;;;1.30;0.50;;;;;;;6.32;87.06;94286.91;5018512;28;20185;-80
2022/02/21 01:16:06;;;;;;;3.60;0.80;;;;;;;6.35;86.49;94275.47;5018739;28;20178;-80
2022/02/21 01:18:31;;;;;;;2.30;0.90;;;;;;;6.45;86.09;94256.38;5034415;28;20179;-79
2022/02/21 01:20:57;;;;;;;2.60;0.90;;;;;;;6.50;85.74;94248.97;5016090;28;20214;-79
2022/02/21 01:23:22;;;;;;;2.63;0.90;;;;;;;6.48;86.10;94253.47;5013840;28;20665;-79
2022/02/21 01:25:47;;;;;;;1.97;0.63;;;;;;;6.58;84.90;94226.75;5013813;28;20198;-80
2022/02/21 01:28:13;;;;;;;2.73;1.03;;;;;;;6.49;84.64;94190.63;5014368;28;20179;-79
2022/02/21 01:30:38;;;;;;;1.27;0.63;;;;;;;6.58;84.18;94196.63;5014179;28;20187;-79
2022/02/21 01:33:03;;;;;;;0.60;0.53;;;;;;;6.61;84.28;94200.66;5013578;28;20182;-79
2022/02/21 01:35:29;;;;;;;1.17;0.70;;;;;;;6.65;83.29;94232.91;5014070;28;20203;-81
2022/02/21 01:37:54;;;;;;;2.30;1.00;;;;;;;6.70;83.79;94190.19;5030126;28;20555;-80
2022/02/21 01:40:21;;;;;;;0.90;0.50;;;;;;;6.63;84.56;94180.69;5013630;28;20187;-79
2022/02/21 01:42:46;;;;;;;2.23;0.70;;;;;;;6.62;84.73;94164.38;5013180;28;20272;-80
2022/02/21 01:45:12;;;;;;;1.50;0.63;;;;;;;6.59;84.74;94163.88;5013913;28;20203;-80
2022/02/21 01:47:37;;;;;;;2.73;1.33;;;;;;;6.60;84.46;94160.34;4996710;28;20179;-80
2022/02/21 01:50:03;;;;;;;4.07;0.70;;;;;;;6.63;83.53;94158.28;5013123;28;20190;-80
2022/02/21 01:52:29;;;;;;;1.03;0.40;;;;;;;6.76;81.86;94157.81;4996006;28;20210;-79
2022/02/21 01:54:54;;;;;;;4.17;0.80;;;;;;;6.79;82.49;94129.09;5013252;28;20655;-78
2022/02/21 01:57:20;;;;;;;0.70;0.50;;;;;;;6.78;82.03;94122.31;5013726;28;20233;-79
2022/02/21 01:59:45;;;;;;;2.60;0.50;;;;;;;6.77;82.14;94105.25;4996874;28;20171;-79
2022/02/21 02:02:11;;;;;;;1.60;0.73;;;;;;;6.78;82.04;94114.59;4996453;28;20222;-79
2022/02/21 02:04:37;;;;;;;0.40;0.30;;;;;;;6.84;81.41;94103.63;5012595;28;20202;-80
2022/02/21 02:07:04;;;;;;;1.20;0.50;;;;;;;6.82;81.98;94118.47;5013320;28;20171;-79
2022/02/21 02:09:30;;;;;;;0.73;0.50;;;;;;;6.79;82.90;94088.63;5029842;28;20271;-79
2022/02/21 02:11:55;;;;;;;2.53;0.60;;;;;;;6.72;83.52;94116.06;5012600;28;20238;-81
2022/02/21 02:14:38;;;;;;;0.80;0.60;;;;;;;6.68;84.41;94101.03;4996577;28;20202;-78
2022/02/21 02:17:08;;;;;;;1.80;0.60;;;;;;;6.51;86.01;94082.13;4995265;28;20182;-80
2022/02/21 02:19:34;;;;;;;1.10;0.40;;;;;;;6.45;87.63;94096.50;5029384;28;20175;-80
2022/02/21 02:22:19;;;;;;;2.80;0.53;;;;;;;6.39;89.05;94091.97;5023774;28;20267;-79
2022/02/21 02:24:47;;;;;;;0.67;0.50;;;;;;;6.24;89.51;94090.94;5004226;28;20206;-81
2022/02/21 02:27:13;;;;;;;1.13;0.50;;;;;;;6.16;90.89;94096.06;5014307;28;20171;-81
2022/02/21 02:29:41;;;;;;;0.50;0.40;;;;;;;6.09;91.71;94101.03;5014583;28;20183;-81
2022/02/21 02:32:08;;;;;;;2.13;0.40;;;;;;;6.08;92.41;94089.09;5013162;28;20202;-81
2022/02/21 02:34:34;;;;;;;0.80;0.43;;;;;;;6.03;92.97;94093.13;5014531;28;20564;-81
2022/02/21 02:36:59;;;;;;;0.57;0.40;;;;;;;6.02;93.81;94081.22;4996990;28;20269;-80
2022/02/21 02:39:25;;;;;;;1.50;0.60;;;;;;;5.87;94.26;94094.63;5013557;28;20178;-80
2022/02/21 02:41:51;;;;;;;0.43;0.37;;;;;;;5.80;95.50;94098.78;5012442;28;20226;-79
2022/02/21 02:44:17;;;;;;;3.07;1.70;;;;;;;5.74;97.31;94077.97;4995968;28;20238;-80
2022/02/21 02:46:42;;;;;;;0.60;0.33;;;;;;;5.64;96.78;94071.19;5012024;28;20179;-79
2022/02/21 02:49:07;;;;;;;2.00;0.50;;;;;;;5.64;98.01;94073.75;4995602;28;20556;-80
2022/02/21 02:51:32;;;;;;;1.67;0.60;;;;;;;5.57;98.67;94053.94;5011169;28;20206;-80
2022/02/21 02:53:58;;;;;;;1.27;0.57;;;;;;;5.58;98.60;94028.03;4995825;28;20266;-79
2022/02/21 02:56:23;;;;;;;2.17;0.47;;;;;;;5.67;99.44;94044.34;4995443;28;20256;-80
2022/02/21 02:58:48;;;;;;;1.37;0.63;;;;;;;5.60;99.26;94045.91;4995939;28;20191;-80
2022/02/21 03:01:14;;;;;;;2.60;0.90;;;;;;;5.70;99.88;94033.72;5011222;28;20581;-81
2022/02/21 03:03:39;;;;;;;1.30;0.40;;;;;;;5.68;100.00;94043.38;4995417;28;20214;-79
2022/02/21 03:06:04;;;;;;;0.70;0.50;;;;;;;5.75;99.66;94036.63;5011734;28;20187;-80
2022/02/21 03:08:30;;;;;;;2.30;0.60;;;;;;;5.81;99.53;94050.66;5012212;28;20183;-79
2022/02/21 03:10:55;;;;;;;2.20;0.60;;;;;;;5.89;98.15;94056.63;5015302;28;20270;-81
2022/02/21 03:13:20;;;;;;;1.23;0.50;;;;;;;5.88;99.20;94070.50;5014659;28;20230;-80
2022/02/21 03:15:45;;;;;;;0.80;0.60;;;;;;;5.97;97.73;94102.28;4998717;28;20595;-81
2022/02/21 03:18:11;;;;;;;2.43;0.60;;;;;;;6.00;98.49;94122.56;5015584;28;20209;-80
2022/02/21 03:20:36;;;;;;;3.93;0.63;;;;;;;6.11;98.72;94212.53;5015065;28;20210;-80
2022/02/21 03:23:01;;;;;;;4.77;0.60;;;;;;;5.95;100.00;94272.50;4997822;28;20246;-80
2022/02/21 03:25:27;;;;;;;0.87;0.50;;;;;;;4.66;98.56;94336.31;5014552;28;20245;-80
2022/02/21 03:27:52;;;;;;;0.30;0.30;;;;;;;4.14;97.74;94321.31;5015074;28;20219;-80
2022/02/21 03:30:18;;;;;;;0.40;0.23;;;;;;;4.02;97.84;94340.41;5015582;28;20182;-79
2022/02/21 03:32:43;;;;;;;1.43;0.40;;;;;;;3.72;97.05;94341.38;5019221;28;20249;-81
2022/02/21 03:35:08;;;;;;;1.17;0.37;;;;;;;3.47;98.25;94360.69;5007413;28;20194;-80
2022/02/21 03:37:35;;;;;;;1.70;0.30;;;;;;;3.15;98.11;94383.97;5023904;28;20735;-79
2022/02/21 03:40:02;;;;;;;2.77;0.60;;;;;;;2.85;97.50;94415.59;5024529;28;20175;-79
2022/02/21 03:42:27;;;;;;;2.57;0.60;;;;;;;2.55;96.51;94408.69;5006298;28;20296;-79
2022/02/21 03:44:53;;;;;;;4.40;1.03;;;;;;;2.26;96.92;94399.09;5022039;28;20242;-80
2022/02/21 03:47:18;;;;;;;3.23;0.70;;;;;;;2.24;96.58;94406.09;5005352;28;20218;-79
2022/02/21 03:49:43;;;;;;;1.40;0.60;;;;;;;2.18;96.92;94411.72;5023253;28;20674;-78
2022/02/21 03:52:08;;;;;;;3.40;0.87;;;;;;;2.13;97.19;94426.66;5020877;28;20203;-79
2022/02/21 03:54:34;;;;;;;3.03;0.70;;;;;;;1.96;96.65;94437.44;5020905;28;20187;-79
2022/02/21 03:56:59;;;;;;;3.70;0.70;;;;;;;1.79;95.82;94422.63;5010907;28;20176;-80
2022/02/21 03:59:24;;;;;;;1.50;0.50;;;;;;;1.91;97.31;94419.88;5025396;28;20183;-80
2022/02/21 04:01:51;;;;;;;2.60;0.70;;;;;;;1.93;96.77;94418.00;5023046;28;20191;-79
2022/02/21 04:04:16;;;;;;;5.17;0.83;;;;;;;1.88;95.62;94394.53;5009678;28;20213;-79
2022/02/21 04:06:41;;;;;;;1.20;0.73;;;;;;;1.66;93.44;94387.75;5029260;28;20246;-79
2022/02/21 04:09:07;;;;;;;1.97;0.70;;;;;;;1.76;93.95;94367.34;5029223;28;20190;-78
2022/02/21 04:11:32;;;;;;;1.07;0.60;;;;;;;1.75;92.69;94381.06;5017914;28;20207;-81
2022/02/21 04:13:57;;;;;;;2.60;0.80;;;;;;;1.87;94.00;94407.47;5015251;28;20180;-80
2022/02/21 04:16:23;;;;;;;2.40;0.80;;;;;;;1.87;92.24;94397.22;5014747;28;20183;-81
2022/02/21 04:18:48;;;;;;;3.33;0.73;;;;;;;1.87;91.85;94392.91;5030766;28;20179;-81
2022/02/21 04:21:13;;;;;;;6.00;1.03;;;;;;;1.91;91.32;94370.41;5013481;28;20538;-81
2022/02/21 04:23:38;;;;;;;4.87;1.20;;;;;;;1.91;90.18;94349.94;5015814;28;20630;-81
2022/02/21 04:26:04;;;;;;;5.77;1.13;;;;;;;1.95;90.88;94357.25;5016176;28;20210;-80
2022/02/21 04:28:29;;;;;;;7.53;1.20;;;;;;;1.89;89.02;94355.19;5016729;28;20179;-80
2022/02/21 04:30:54;;;;;;;6.47;1.40;;;;;;;2.03;89.55;94350.69;5014633;28;20279;-81
2022/02/21 04:33:20;;;;;;;9.10;1.30;;;;;;;1.96;89.08;94348.66;4997547;28;20178;-80
2022/02/21 04:35:45;;;;;;;9.03;1.63;;;;;;;1.98;87.66;94328.84;4998528;28;20624;-80
2022/02/21 04:38:12;;;;;;;7.83;1.47;;;;;;;1.98;88.28;94333.16;5014679;28;20179;-80
2022/02/21 04:40:39;;;;;;;5.43;1.97;;;;;;;2.05;89.33;94328.34;5014736;28;20412;-82
2022/02/21 04:43:05;;;;;;;6.53;1.93;;;;;;;2.09;88.74;94327.16;4997478;28;20688;-80
2022/02/21 04:45:30;;;;;;;6.23;1.10;;;;;;;2.12;88.57;94330.28;5014432;28;20235;-80
2022/02/21 04:47:56;;;;;;;8.47;1.40;;;;;;;2.12;88.41;94344.81;4998058;28;20183;-80
2022/02/21 04:50:21;;;;;;;9.83;1.67;;;;;;;2.07;86.92;94346.94;4998530;28;20179;-80
2022/02/21 04:52:46;;;;;;;8.33;1.60;;;;;;;2.17;87.67;94356.31;5013538;28;20684;-80
2022/02/21 04:55:13;;;;;;;8.30;1.37;;;;;;;2.19;86.18;94358.75;5015449;28;20194;-80
2022/02/21 04:57:39;;;;;;;4.60;1.20;;;;;;;2.17;86.78;94379.34;4997692;28;20215;-81
2022/02/21 05:00:07;;;;;;;7.13;1.60;;;;;;;2.17;86.24;94388.78;5013953;28;20179;-80
2022/02/21 05:02:32;;;;;;;7.70;1.83;;;;;;;2.20;86.55;94378.28;5013973;28;20270;-80
2022/02/21 05:04:57;;;;;;;6.97;1.67;;;;;;;2.13;85.78;94366.94;5014005;28;20242;-80
2022/02/21 05:07:23;;;;;;;9.37;1.80;;;;;;;2.11;86.17;94344.00;5019096;28;20244;-80
2022/02/21 05:09:48;;;;;;;12.30;1.80;;;;;;;2.08;87.08;94344.25;5034580;28;20186;-80
2022/02/21 05:12:13;;;;;;;10.37;1.90;;;;;;;2.15;86.82;94372.75;5017220;28;20215;-80
2022/02/21 05:14:39;;;;;;;5.37;1.47;;;;;;;2.17;87.31;94397.28;5017770;28;20187;-80
2022/02/21 05:17:05;;;;;;;11.23;1.97;;;;;;;2.20;87.62;94417.53;5017117;28;20675;-80
2022/02/21 05:19:30;;;;;;;10.63;1.83;;;;;;;2.16;87.08;94402.53;5016499;28;20188;-80
2022/02/21 05:21:55;;;;;;;6.80;2.10;;;;;;;2.12;87.65;94401.16;5016347;28;20725;-80
2022/02/21 05:24:21;;;;;;;7.77;1.87;;;;;;;2.15;87.82;94385.56;5033587;28;20210;-80
2022/02/21 05:26:46;;;;;;;9.43;2.27;;;;;;;2.13;88.25;94393.38;5017494;28;20206;-80
2022/02/21 05:29:12;;;;;;;10.30;2.43;;;;;;;2.06;88.47;94397.34;5017310;28;20233;-79
2022/02/21 05:31:37;;;;;;;13.57;2.23;;;;;;;2.18;87.95;94390.41;5015742;28;20198;-81
2022/02/21 05:34:02;;;;;;;10.93;2.30;;;;;;;2.15;86.68;94375.31;5033777;28;20190;-80
2022/02/21 05:36:27;;;;;;;10.60;2.40;;;;;;;2.20;85.63;94373.16;5034401;28;20182;-81
2022/02/21 05:38:53;;;;;;;11.90;2.27;;;;;;;2.23;86.53;94376.31;5017300;28;20201;-79
2022/02/21 05:41:18;;;;;;;9.20;2.60;;;;;;;2.24;86.59;94366.88;4999116;28;20199;-80
2022/02/21 05:43:43;;;;;;;11.60;2.63;;;;;;;2.19;87.32;94345.94;4997740;28;20213;-79
2022/02/21 05:46:09;;;;;;;8.80;1.63;;;;;;;2.12;84.25;94355.06;5015187;28;20182;-79
2022/02/21 05:48:34;;;;;;;12.27;3.07;;;;;;;2.21;84.10;94367.94;5014213;28;20276;-81
2022/02/21 05:50:59;;;;;;;5.83;2.40;;;;;;;2.19;83.72;94392.03;5013654;28;20197;-79
2022/02/21 05:53:25;;;;;;;8.83;2.00;;;;;;;2.17;82.66;94402.41;5013242;28;20179;-79
2022/02/21 05:55:50;;;;;;;16.17;2.43;;;;;;;2.20;82.21;94376.53;4996103;28;20202;-80
2022/02/21 05:58:15;;;;;;;14.37;2.60;;;;;;;2.20;82.05;94378.28;5013638;28;20180;-79
2022/02/21 06:00:42;;;;;;;9.67;2.37;;;;;;;2.23;80.99;94378.88;4997192;28;20722;-80
2022/02/21 06:03:08;;;;;;;11.57;1.93;;;;;;;2.25;80.08;94383.84;4997130;28;20374;-80
2022/02/21 06:05:33;;;;;;;11.80;1.87;;;;;;;2.15;82.38;94377.88;5013642;28;20262;-80
2022/02/21 06:07:58;;;;;;;9.57;1.97;;;;;;;2.22;82.51;94391.81;5013685;28;20738;-81
2022/02/21 06:10:24;;;;;;;8.97;2.03;;;;;;;2.19;83.41;94409.97;4997813;28;20187;-80
2022/02/21 06:12:49;;;;;;;14.43;2.20;;;;;;;2.19;84.25;94417.66;5013281;28;20207;-80
2022/02/21 06:15:14;;;;;;;7.57;1.73;;;;;;;2.20;82.54;94430.31;5013669;28;20190;-80
2022/02/21 06:17:40;;;;;;;10.97;2.50;;;;;;;2.16;82.13;94436.66;5034102;28;20175;-81
2022/02/21 06:20:05;;;;;;;5.93;2.03;;;;;;;2.26;82.91;94444.41;5033307;28;20174;-82
2022/02/21 06:22:31;;;;;;;11.87;2.20;;;;;;;2.22;83.54;94453.28;5016158;28;20198;-82
2022/02/21 06:24:56;;;;;;;9.20;1.43;;;;;;;2.19;83.96;94467.13;5015696;28;20742;-82
2022/02/21 06:27:21;;;;;;;9.90;2.60;;;;;;;2.11;83.69;94525.81;5016995;28;20228;-82
2022/02/21 06:29:47;;;;;;;6.43;1.93;;;;;;;2.16;83.17;94525.47;5032919;28;20182;-83
2022/02/21 06:32:12;;;;;;;7.90;2.50;;;;;;;2.16;83.61;94525.47;5016492;28;20199;-81
2022/02/21 06:34:38;;;;;;;9.60;2.17;;;;;;;2.13;83.07;94521.44;5017000;28;20201;-81
2022/02/21 06:37:03;;;;;;;10.37;2.20;;;;;;;2.13;81.83;94526.53;5032983;28;20218;-81
2022/02/21 06:39:28;;;;;;;10.27;2.10;;;;;;;2.11;80.49;94517.34;4999241;28;20273;-82
2022/02/21 06:41:54;;;;;;;7.60;2.27;;;;;;;2.10;77.78;94525.97;4995973;28;20260;-81
2022/02/21 06:44:19;;;;;;;9.90;2.57;;;;;;;2.05;78.99;94528.09;5002409;28;20217;-82
2022/02/21 06:46:44;;;;;;;14.43;2.70;;;;;;;2.02;79.41;94534.25;5014322;28;20205;-81
2022/02/21 06:49:13;;;;;;;4.60;2.23;;;;;;;1.91;78.07;94563.25;5003245;28;20205;-82
2022/02/21 06:51:38;;;;;;;10.40;2.57;;;;;;;1.89;79.40;94569.44;4998879;28;20202;-81
2022/02/21 06:54:05;;;;;;;9.50;2.70;;;;;;;1.90;79.67;94571.88;5015945;28;20190;-81
2022/02/21 06:56:31;;;;;;;11.77;2.00;;;;;;;1.74;78.92;94585.97;5001763;28;20194;-81
2022/02/21 06:58:56;;;;;;;11.17;2.63;;;;;;;1.77;78.95;94573.75;5002068;28;20683;-83
2022/02/21 07:01:21;;;;;;;12.20;2.00;;;;;;;1.77;78.06;94571.19;5001552;28;20213;-79
2022/02/21 07:03:48;;;;;;;15.80;2.57;;;;;;;1.73;77.88;94597.94;5004257;28;20195;-84
2022/02/21 07:06:14;;;;;;;13.57;2.60;;;;;;;1.75;77.34;94588.41;5000781;28;20175;-83
2022/02/21 07:08:39;;;;;;;13.33;2.47;;;;;;;1.74;78.39;94606.44;4999880;28;20179;-81
2022/02/21 07:11:04;;;;;;;17.37;3.00;;;;;;;1.87;78.47;94584.09;4993902;28;20210;-81
2022/02/21 07:13:30;;;;;;;11.13;2.57;;;;;;;2.08;78.54;94605.47;4990708;28;20180;-81
2022/02/21 07:15:55;;;;;;;11.13;3.13;;;;;;;2.09;78.17;94585.78;5011838;28;20234;-81
2022/02/21 07:18:20;;;;;;;11.90;2.87;;;;;;;1.96;78.64;94591.88;4996725;28;20186;-81
2022/02/21 07:20:46;;;;;;;15.20;2.50;;;;;;;2.06;78.29;94591.97;5014217;28;20181;-82
2022/02/21 07:23:11;;;;;;;9.37;2.93;;;;;;;1.94;77.68;94609.13;4994210;28;20197;-81
2022/02/21 07:25:36;;;;;;;10.33;2.93;;;;;;;2.04;77.41;94622.03;4996584;28;20811;-81
2022/02/21 07:28:02;;;;;;;12.60;2.80;;;;;;;1.98;77.81;94610.50;5012895;28;20187;-78
2022/02/21 07:30:27;;;;;;;13.17;3.00;;;;;;;2.13;77.99;94638.44;5014367;28;20605;-82
2022/02/21 07:32:53;;;;;;;9.77;2.30;;;;;;;2.23;77.90;94621.41;5015139;28;20798;-83
2022/02/21 07:35:19;;;;;;;12.87;3.07;;;;;;;2.35;77.85;94635.00;4999338;28;20250;-83
2022/02/21 07:37:44;;;;;;;21.70;3.70;;;;;;;2.42;77.56;94643.84;5018292;28;20233;-83
2022/02/21 07:40:11;;;;;;;11.17;3.20;;;;;;;2.43;76.97;94669.34;5003212;28;20179;-82
2022/02/21 07:42:39;;;;;;;18.23;4.00;;;;;;;2.46;76.61;94643.47;5019663;28;20229;-83
2022/02/21 07:45:05;;;;;;;11.13;3.10;;;;;;;2.33;76.60;94642.81;5019566;28;20219;-86
2022/02/21 07:47:31;;;;;;;11.60;3.57;;;;;;;2.42;77.09;94652.34;5005463;28;20182;-86
2022/02/21 07:49:56;;;;;;;11.67;2.33;;;;;;;2.57;77.48;94650.31;5011310;28;20189;-86
2022/02/21 07:52:21;;;;;;;11.47;2.93;;;;;;;2.56;77.77;94653.81;5014314;28;20217;-84
2022/02/21 07:54:46;;;;;;;13.43;3.50;;;;;;;2.60;77.32;94659.53;5007658;28;20192;-85
2022/02/21 07:57:13;;;;;;;14.40;3.13;;;;;;;2.38;76.83;94662.94;5000398;28;20187;-84
2022/02/21 07:59:38;;;;;;;11.17;3.03;;;;;;;2.23;77.25;94670.06;4990797;28;20263;-85
2022/02/21 08:02:04;;;;;;;17.50;3.13;;;;;;;2.32;77.11;94664.25;4997036;28;20234;-83
2022/02/21 08:04:29;;;;;;;10.73;3.57;;;;;;;2.34;76.56;94656.44;5008504;28;20246;-84
2022/02/21 08:06:54;;;;;;;11.57;2.63;;;;;;;2.39;76.51;94655.16;5000995;28;20649;-85
2022/02/21 08:09:23;;;;;;;13.87;2.30;;;;;;;2.33;76.61;94658.19;5018266;28;20179;-86
2022/02/21 08:11:48;;;;;;;10.90;2.77;;;;;;;2.34;76.91;94659.81;5033276;28;20203;-82
2022/02/21 08:14:14;;;;;;;12.93;2.50;;;;;;;2.43;77.49;94661.66;5011515;28;20183;-83
2022/02/21 08:16:39;;;;;;;11.83;2.87;;;;;;;2.53;76.63;94672.00;5016934;28;20235;-83
2022/02/21 08:19:04;;;;;;;12.93;2.97;;;;;;;2.72;76.37;94658.53;4996829;28;20190;-83
2022/02/21 08:21:30;;;;;;;11.87;2.73;;;;;;;2.78;75.72;94650.38;4996128;28;20214;-83
2022/02/21 08:23:55;;;;;;;12.77;2.83;;;;;;;2.68;75.79;94675.09;5001606;28;20235;-82
2022/02/21 08:26:20;;;;;;;12.33;3.30;;;;;;;2.82;75.83;94647.41;5015187;28;20655;-83
2022/02/21 08:28:46;;;;;;;9.50;2.93;;;;;;;3.14;74.64;94672.25;5016646;28;20179;-83
2022/02/21 08:31:11;;;;;;;13.37;2.90;;;;;;;3.35;74.90;94677.38;4999435;28;20221;-84
2022/02/21 08:33:37;;;;;;;13.00;2.63;;;;;;;3.52;73.48;94673.44;4999035;28;20197;-84
2022/02/21 08:36:02;;;;;;;16.23;3.60;;;;;;;3.60;72.99;94679.56;5016068;28;20171;-82
2022/02/21 08:38:28;;;;;;;15.97;2.77;;;;;;;3.81;72.28;94681.31;5015750;28;20546;-82
2022/02/21 08:40:53;;;;;;;12.53;2.43;;;;;;;3.70;72.51;94698.41;5018131;28;20237;-81
2022/02/21 08:43:18;;;;;;;11.17;2.23;;;;;;;3.59;72.76;94683.06;5007444;28;20612;-84
2022/02/21 08:45:44;;;;;;;10.40;3.27;;;;;;;3.37;72.24;94704.56;5009234;28;20194;-84
2022/02/21 08:48:09;;;;;;;8.63;2.60;;;;;;;3.52;72.14;94709.38;5028788;28;20698;-84
2022/02/21 08:50:34;;;;;;;14.73;2.80;;;;;;;3.48;71.02;94696.00;5027620;28;20209;-85
2022/02/21 08:53:00;;;;;;;11.27;2.20;;;;;;;3.49;70.45;94692.47;5000990;28;20235;-84
2022/02/21 08:55:25;;;;;;;12.83;2.87;;;;;;;3.45;70.82;94706.50;5003096;28;20199;-84
2022/02/21 08:57:51;;;;;;;11.13;2.03;;;;;;;3.59;70.80;94708.75;5011117;28;20290;-83
2022/02/21 09:00:16;;;;;;;10.73;2.33;;;;;;;3.85;70.27;94703.22;5000852;28;20183;-83
2022/02/21 09:02:45;;;;;;;12.07;2.10;;;;;;;3.57;69.12;94702.94;5015359;28;20207;-83
2022/02/21 09:05:12;;;;;;;8.67;2.37;;;;;;;3.55;69.48;94717.66;4997622;28;20207;-83
2022/02/21 09:07:37;;;;;;;10.63;2.60;;;;;;;3.60;69.93;94709.56;5013155;28;20221;-83
2022/02/21 09:10:04;;;;;;;14.80;3.07;;;;;;;3.55;69.93;94711.72;4997496;28;20192;-83
2022/02/21 09:12:29;;;;;;;16.37;2.60;;;;;;;3.32;70.29;94708.44;5011914;28;20202;-82
2022/02/21 09:14:56;;;;;;;6.13;1.90;;;;;;;3.31;71.96;94710.19;5009547;28;20238;-83
2022/02/21 09:17:22;;;;;;;5.77;1.77;;;;;;;2.99;72.43;94714.50;5023942;28;20194;-82
2022/02/21 09:19:47;;;;;;;11.90;2.60;;;;;;;3.31;72.83;94696.53;5008002;28;20187;-83
2022/02/21 09:22:13;;;;;;;11.73;2.27;;;;;;;3.36;73.36;94691.88;4996314;28;20222;-83
2022/02/21 09:24:38;;;;;;;8.23;2.07;;;;;;;3.27;71.51;94697.72;4996696;28;20215;-83
2022/02/21 09:27:03;;;;;;;10.87;2.57;;;;;;;3.09;70.52;94688.03;4999000;28;20183;-83
2022/02/21 09:29:29;;;;;;;8.30;2.37;;;;;;;3.38;71.79;94697.69;5006684;28;20206;-83
2022/02/21 09:31:56;;;;;;;8.90;1.87;;;;;;;3.36;70.45;94702.94;5004902;28;20199;-83
2022/02/21 09:34:21;;;;;;;9.73;2.20;;;;;;;3.69;70.06;94699.34;5011839;28;20576;-83
2022/02/21 09:36:52;;;;;;;14.50;2.10;;;;;;;3.85;67.50;94700.66;5028300;28;20196;-87
2022/02/21 09:39:18;;;;;;;13.83;2.57;;;;;;;3.79;68.01;94714.00;4998517;28;20195;-83
2022/02/21 09:41:43;;;;;;;9.23;2.07;;;;;;;3.51;69.66;94710.31;4998421;28;20266;-83
2022/02/21 09:44:09;;;;;;;12.10;2.30;;;;;;;3.59;72.18;94713.06;5013734;28;20203;-84
2022/02/21 09:46:35;;;;;;;9.83;1.97;;;;;;;3.69;72.96;94729.34;5015380;28;20649;-82
2022/02/21 09:49:01;;;;;;;8.00;2.20;;;;;;;3.63;72.67;94719.59;4997921;28;20179;-85
2022/02/21 09:51:26;;;;;;;8.10;1.93;;;;;;;3.36;73.88;94720.09;4996322;28;20274;-85
2022/02/21 09:53:53;;;;;;;8.87;2.10;;;;;;;3.75;72.80;94740.88;4996937;28;20258;-83
2022/02/21 09:56:18;;;;;;;8.00;2.87;;;;;;;3.48;72.24;94711.38;4994696;28;20266;-84
2022/02/21 09:58:43;;;;;;;14.87;2.80;;;;;;;3.68;71.17;94728.53;4978994;28;20187;-82
2022/02/21 10:01:08;;;;;;;9.73;1.90;;;;;;;3.67;67.76;94728.66;4997259;28;20211;-82
2022/02/21 10:03:37;;;;;;;11.83;2.77;;;;;;;3.95;68.84;94709.22;4998027;28;20204;-83
2022/02/21 10:06:32;;;;;;;3.67;1.40;;;;;;;4.07;67.94;94718.50;5013952;28;20192;-84
2022/02/21 10:09:03;;;;;;;6.13;1.77;;;;;;;4.21;66.94;94718.13;4997755;28;20201;-83
2022/02/21 10:11:30;;;;;;;7.37;1.97;;;;;;;4.14;64.48;94714.44;4975874;28;20218;-86
2022/02/21 10:13:58;;;;;;;9.97;1.93;;;;;;;4.25;64.06;94704.09;4993879;28;20316;-85
2022/02/21 10:16:24;;;;;;;8.30;1.40;;;;;;;3.91;62.64;94728.41;4999450;28;20201;-83
2022/02/21 10:18:49;;;;;;;13.13;1.80;;;;;;;3.97;63.36;94705.56;5009612;28;20196;-82
2022/02/21 10:21:15;;;;;;;11.70;1.70;;;;;;;4.16;62.77;94706.63;4992681;28;20837;-84
2022/02/21 10:23:43;;;;;;;4.33;1.53;;;;;;;4.24;62.32;94699.91;4967214;28;20224;-83
2022/02/21 10:26:09;;;;;;;6.90;2.23;;;;;;;4.33;60.64;94700.88;4976564;28;20193;-84
2022/02/21 10:28:38;;;;;;;9.03;1.67;;;;;;;4.41;61.54;94693.31;4999525;28;20213;-82
2022/02/21 10:31:17;;;;;;;8.13;1.80;;;;;;;4.59;60.84;94672.91;4999873;28;20269;-82
2022/02/21 10:33:48;;;;;;;6.30;1.33;;;;;;;4.19;59.22;94684.03;4996878;28;20556;-83
2022/02/21 10:36:47;;;;;;;8.13;1.77;;;;;;;4.27;59.87;94688.53;5003877;28;20271;-82
2022/02/21 10:39:17;;;;;;;7.03;1.70;;;;;;;4.25;58.42;94680.97;4998503;28;20198;-82
2022/02/21 10:41:53;;;;;;;7.90;1.90;;;;;;;4.24;59.10;94684.47;4995608;28;20210;-82
2022/02/21 10:44:26;;;;;;;9.67;2.10;;;;;;;4.25;59.66;94686.09;5014170;28;20215;-83
2022/02/21 10:47:08;;;;;;;7.77;1.83;;;;;;;4.41;58.90;94677.88;4998639;28;20195;-82
2022/02/21 10:49:38;;;;;;;7.67;1.77;;;;;;;4.30;59.83;94683.13;5011160;28;20187;-82
2022/02/21 10:52:03;;;;;;;8.63;1.90;;;;;;;4.47;59.84;94708.22;4984623;28;20231;-82
2022/02/21 10:54:37;;;;;;;10.77;2.10;;;;;;;4.05;64.49;94702.38;4992040;28;20630;-81
2022/02/21 10:57:10;;;;;;;8.50;1.50;;;;;;;3.76;70.14;94715.06;5019223;28;20581;-83
2022/02/21 10:59:36;;;;;;;7.80;1.70;;;;;;;3.48;71.94;94719.09;4996640;28;20219;-84
2022/02/21 11:02:02;;;;;;;9.17;1.57;;;;;;;3.62;73.43;94759.03;5013270;28;20211;-83
2022/02/21 11:04:28;;;;;;;7.27;1.20;;;;;;;3.17;75.91;94748.94;5014267;28;20274;-84
2022/02/21 11:06:58;;;;;;;2.87;1.40;;;;;;;3.07;78.12;94738.63;4997322;28;20565;-82
2022/02/21 11:09:28;;;;;;;3.37;1.20;;;;;;;2.86;78.66;94708.75;4996196;28;20223;-83
2022/02/21 11:11:57;;;;;;;4.27;1.23;;;;;;;2.53;79.44;94721.50;5012269;28;20203;-83
2022/02/21 11:14:29;;;;;;;9.10;2.07;;;;;;;2.80;80.58;94698.00;5013376;28;20186;-84
2022/02/21 11:16:56;;;;;;;7.70;1.93;;;;;;;2.85;79.61;94695.09;5012604;28;20179;-84
2022/02/21 11:19:21;;;;;;;5.80;1.70;;;;;;;2.95;78.99;94696.00;4977625;28;20184;-83
2022/02/21 11:21:48;;;;;;;5.60;1.60;;;;;;;3.20;79.10;94694.03;5009096;28;20211;-83
2022/02/21 11:24:15;;;;;;;6.77;1.80;;;;;;;3.42;77.23;94683.66;5016990;28;20203;-84
2022/02/21 11:27:01;;;;;;;5.23;1.63;;;;;;;3.65;76.59;94687.72;4998182;28;20179;-85
2022/02/21 11:29:57;;;;;;;5.23;2.00;;;;;;;3.83;72.56;94682.81;5011427;28;20263;-82
2022/02/21 11:32:22;;;;;;;9.07;1.93;;;;;;;4.15;71.96;94684.41;5014823;28;20421;-83
2022/02/21 11:35:10;;;;;;;9.30;2.10;;;;;;;4.31;70.08;94676.22;5015833;28;20641;-84